CST,Max TemperatureF,Mean TemperatureF,Min TemperatureF,Max Dew PointF,MeanDew PointF,Min DewpointF,Max Humidity, Mean Humidity, Min Humidity, Max Sea Level PressureIn, Mean Sea Level PressureIn, Min Sea Level PressureIn, Max VisibilityMiles, Mean VisibilityMiles, Min VisibilityMiles, Max Wind SpeedMPH, Mean Wind SpeedMPH, Max Gust SpeedMPH,PrecipitationIn, CloudCover, Events, WindDirDegrees
2012-12-1,69,56,44,54,48,41,91,72,56,30.12,30.04,29.95,10,9,2,18,8,17,0.00,5,,161
2012-12-2,75,68,61,61,57,53,89,74,53,30.03,29.99,29.95,10,9,7,16,10,22,0.00,6,,188
2012-12-3,73,68,63,61,59,55,88,78,53,30.03,29.97,29.88,10,8,7,21,13,30,0.00,3,,175
2012-12-4,65,52,39,57,47,37,94,79,48,30.30,30.12,29.94,10,9,5,15,8,18,0.10,5,Rain,317
2012-12-5,55,45,35,39,35,32,93,78,44,30.39,30.29,30.16,10,10,7,9,2,,0.00,1,,83
2012-12-6,51,44,36,44,38,32,87,82,62,30.16,30.05,29.94,10,10,10,9,4,,0.00,4,,106
2012-12-7,55,50,46,54,47,43,94,89,82,29.94,29.89,29.81,10,5,0,10,2,,0.01,7,Fog-Rain,59
2012-12-8,50,47,44,48,44,39,93,87,76,30.01,29.94,29.87,10,6,3,14,6,,0.11,8,Rain,346
2012-12-9,51,46,40,50,43,33,94,86,75,29.96,29.86,29.77,10,5,0,21,5,26,0.19,7,Fog-Rain,344
2012-12-10,40,35,30,33,26,23,78,74,64,30.06,29.95,29.87,10,10,10,20,14,25,0.00,8,,284
2012-12-11,42,32,23,25,21,14,86,71,31,30.23,30.13,30.07,10,10,10,17,6,,0.00,0,,200
2012-12-12,50,36,23,27,23,18,93,69,28,30.34,30.28,30.23,10,10,10,13,3,,0.00,0,,154
2012-12-13,55,41,27,39,26,19,89,69,25,30.33,30.28,30.19,10,10,10,23,6,21,0.00,1,,142
2012-12-14,57,44,31,40,31,25,89,70,31,30.23,30.16,29.99,10,10,7,14,5,,0.02,4,Rain,140
2012-12-15,62,54,45,52,46,38,90,83,63,29.97,29.78,29.60,10,9,4,24,11,34,0.27,6,Rain,163
2012-12-16,55,48,41,47,42,39,93,85,58,29.76,29.72,29.67,10,8,1,14,5,,0.00,3,,253
2012-12-17,42,41,39,39,38,34,93,87,80,29.81,29.74,29.68,10,6,2,16,4,,0.00,8,Rain,329
2012-12-18,59,46,34,39,34,32,91,75,36,29.93,29.80,29.67,10,8,5,21,6,28,0.00,2,,187
2012-12-19,54,43,32,48,36,31,92,84,74,30.01,29.87,29.54,10,7,4,17,5,22,0.06,4,Rain,94
2012-12-20,57,44,30,54,40,21,93,80,66,29.93,29.53,29.24,10,8,2,30,15,44,0.29,7,Rain-Snow-Thunderstorm,222
2012-12-21,37,32,26,21,18,14,69,62,38,30.29,30.13,29.94,10,10,10,26,20,34,0.00,0,,285
2012-12-22,46,34,21,27,20,16,86,66,29,30.30,30.17,29.96,10,10,10,16,6,,0.00,0,,191
2012-12-23,48,39,30,34,30,26,93,77,50,29.96,29.92,29.86,10,9,5,14,4,,0.00,2,,49
2012-12-24,37,32,26,33,28,17,93,82,68,30.14,29.94,29.81,10,7,2,21,5,18,0.00,7,,320
2012-12-25,35,30,26,28,23,18,86,76,69,30.27,30.14,29.99,10,9,4,18,6,28,0.00,7,,360
2012-12-26,35,33,31,28,26,24,80,75,70,30.17,30.01,29.91,10,10,10,23,13,34,0.00,8,,337
2012-12-27,35,32,30,27,25,23,80,75,60,30.21,30.15,30.08,10,10,10,10,4,,0.00,7,,64
2012-12-28,35,34,32,32,30,27,93,86,79,30.09,29.99,29.90,10,7,2,8,5,,0.04,8,Snow,120
2012-12-29,34,27,19,32,25,15,92,82,60,30.34,30.12,29.91,10,7,4,17,7,25,0.04,5,Snow,291
2012-12-30,39,29,19,28,25,16,86,73,60,30.42,30.30,30.21,10,10,10,23,10,20,0.00,3,,177
2012-12-31,39,36,32,34,29,25,96,78,62,30.23,30.16,30.09,10,6,1,14,9,,0.00,5,Snow,205